sensor_id;sensor_type;location;lat;lon;timestamp;temperature;humidity
28460;DHT22;32528;45.712;9.192;2022-08-03T00:00:06;24.10;79.50
28460;DHT22;32528;45.712;9.192;2022-08-03T00:02:13;24.00;79.60
28460;DHT22;32528;45.712;9.192;2022-08-03T00:04:13;24.00;79.50
28460;DHT22;32528;45.712;9.192;2022-08-03T00:06:14;23.90;79.80
28460;DHT22;32528;45.712;9.192;2022-08-03T00:08:15;23.90;80.00
28460;DHT22;32528;45.712;9.192;2022-08-03T00:10:16;23.90;79.80
28460;DHT22;32528;45.712;9.192;2022-08-03T00:12:17;23.90;80.10
28460;DHT22;32528;45.712;9.192;2022-08-03T00:14:17;23.80;80.10
28460;DHT22;32528;45.712;9.192;2022-08-03T00:16:19;23.90;79.90
28460;DHT22;32528;45.712;9.192;2022-08-03T00:18:20;23.80;79.50
28460;DHT22;32528;45.712;9.192;2022-08-03T00:20:21;23.90;79.50
28460;DHT22;32528;45.712;9.192;2022-08-03T00:22:22;23.90;79.60
28460;DHT22;32528;45.712;9.192;2022-08-03T00:24:22;23.90;79.80
28460;DHT22;32528;45.712;9.192;2022-08-03T00:26:23;23.80;79.60
28460;DHT22;32528;45.712;9.192;2022-08-03T00:28:24;23.80;79.50
28460;DHT22;32528;45.712;9.192;2022-08-03T00:30:25;23.80;79.50
28460;DHT22;32528;45.712;9.192;2022-08-03T00:32:25;23.70;79.50
28460;DHT22;32528;45.712;9.192;2022-08-03T00:34:26;23.80;79.70
28460;DHT22;32528;45.712;9.192;2022-08-03T00:36:27;23.70;79.90
28460;DHT22;32528;45.712;9.192;2022-08-03T00:38:28;23.70;79.90
28460;DHT22;32528;45.712;9.192;2022-08-03T00:40:30;23.70;80.00
28460;DHT22;32528;45.712;9.192;2022-08-03T00:42:31;23.70;80.00
28460;DHT22;32528;45.712;9.192;2022-08-03T00:44:41;23.70;80.00
28460;DHT22;32528;45.712;9.192;2022-08-03T00:46:42;23.70;80.30
28460;DHT22;32528;45.712;9.192;2022-08-03T00:48:44;23.60;80.20
28460;DHT22;32528;45.712;9.192;2022-08-03T00:50:45;23.60;80.20
28460;DHT22;32528;45.712;9.192;2022-08-03T00:52:48;23.50;80.20
28460;DHT22;32528;45.712;9.192;2022-08-03T00:54:49;23.50;80.40
28460;DHT22;32528;45.712;9.192;2022-08-03T00:56:50;23.50;80.40
28460;DHT22;32528;45.712;9.192;2022-08-03T00:58:52;23.50;80.20
28460;DHT22;32528;45.712;9.192;2022-08-03T01:00:56;23.50;80.10
28460;DHT22;32528;45.712;9.192;2022-08-03T01:02:56;23.50;80.00
28460;DHT22;32528;45.712;9.192;2022-08-03T01:04:57;23.50;80.30
28460;DHT22;32528;45.712;9.192;2022-08-03T01:07:05;23.50;80.40
28460;DHT22;32528;45.712;9.192;2022-08-03T01:09:30;23.50;80.50
28460;DHT22;32528;45.712;9.192;2022-08-03T01:11:43;23.50;80.80
28460;DHT22;32528;45.712;9.192;2022-08-03T01:14:26;23.50;81.50
28460;DHT22;32528;45.712;9.192;2022-08-03T01:20:48;23.50;81.10
28460;DHT22;32528;45.712;9.192;2022-08-03T01:30:13;23.30;81.90
28460;DHT22;32528;45.712;9.192;2022-08-03T01:32:18;23.20;81.30
28460;DHT22;32528;45.712;9.192;2022-08-03T01:34:21;23.20;81.30
28460;DHT22;32528;45.712;9.192;2022-08-03T01:36:28;23.20;81.30
28460;DHT22;32528;45.712;9.192;2022-08-03T01:38:40;23.20;81.70
28460;DHT22;32528;45.712;9.192;2022-08-03T01:40:43;23.20;81.70
28460;DHT22;32528;45.712;9.192;2022-08-03T01:42:46;23.10;81.50
28460;DHT22;32528;45.712;9.192;2022-08-03T01:44:50;23.10;81.40
28460;DHT22;32528;45.712;9.192;2022-08-03T01:46:52;23.10;81.50
28460;DHT22;32528;45.712;9.192;2022-08-03T01:48:54;23.10;81.70
28460;DHT22;32528;45.712;9.192;2022-08-03T01:50:56;23.10;81.80
28460;DHT22;32528;45.712;9.192;2022-08-03T01:52:59;23.20;81.80
28460;DHT22;32528;45.712;9.192;2022-08-03T01:55:02;23.10;81.80
28460;DHT22;32528;45.712;9.192;2022-08-03T01:57:04;23.10;82.00
28460;DHT22;32528;45.712;9.192;2022-08-03T01:59:07;23.10;82.10
28460;DHT22;32528;45.712;9.192;2022-08-03T02:01:09;23.10;82.00
28460;DHT22;32528;45.712;9.192;2022-08-03T02:03:13;23.00;81.90
28460;DHT22;32528;45.712;9.192;2022-08-03T02:05:15;23.00;81.90
28460;DHT22;32528;45.712;9.192;2022-08-03T02:07:18;23.00;82.20
28460;DHT22;32528;45.712;9.192;2022-08-03T02:09:21;23.00;82.30
28460;DHT22;32528;45.712;9.192;2022-08-03T02:11:23;22.90;83.20
28460;DHT22;32528;45.712;9.192;2022-08-03T02:13:24;22.90;82.30
28460;DHT22;32528;45.712;9.192;2022-08-03T02:15:26;22.90;82.50
28460;DHT22;32528;45.712;9.192;2022-08-03T02:17:29;22.90;82.70
28460;DHT22;32528;45.712;9.192;2022-08-03T02:19:31;22.90;82.80
28460;DHT22;32528;45.712;9.192;2022-08-03T02:21:36;22.90;82.80
28460;DHT22;32528;45.712;9.192;2022-08-03T02:23:37;22.80;83.80
28460;DHT22;32528;45.712;9.192;2022-08-03T02:25:43;22.80;82.90
28460;DHT22;32528;45.712;9.192;2022-08-03T02:27:50;22.80;82.90
28460;DHT22;32528;45.712;9.192;2022-08-03T02:30:10;22.80;83.10
28460;DHT22;32528;45.712;9.192;2022-08-03T02:32:13;22.80;83.80
28460;DHT22;32528;45.712;9.192;2022-08-03T02:34:18;22.70;83.30
28460;DHT22;32528;45.712;9.192;2022-08-03T02:36:24;22.70;83.10
28460;DHT22;32528;45.712;9.192;2022-08-03T02:38:30;22.70;83.00
28460;DHT22;32528;45.712;9.192;2022-08-03T02:40:32;22.80;83.20
28460;DHT22;32528;45.712;9.192;2022-08-03T02:42:35;22.70;83.10
28460;DHT22;32528;45.712;9.192;2022-08-03T02:44:38;22.70;83.10
28460;DHT22;32528;45.712;9.192;2022-08-03T02:46:44;22.70;83.20
28460;DHT22;32528;45.712;9.192;2022-08-03T02:48:46;22.70;83.50
28460;DHT22;32528;45.712;9.192;2022-08-03T02:50:51;22.60;83.60
28460;DHT22;32528;45.712;9.192;2022-08-03T02:52:54;22.60;84.60
28460;DHT22;32528;45.712;9.192;2022-08-03T02:54:58;22.60;84.00
28460;DHT22;32528;45.712;9.192;2022-08-03T02:57:00;22.50;84.30
28460;DHT22;32528;45.712;9.192;2022-08-03T02:59:02;22.50;84.20
28460;DHT22;32528;45.712;9.192;2022-08-03T03:01:04;22.50;84.20
28460;DHT22;32528;45.712;9.192;2022-08-03T03:03:05;22.50;84.30
28460;DHT22;32528;45.712;9.192;2022-08-03T03:05:08;22.40;84.30
28460;DHT22;32528;45.712;9.192;2022-08-03T03:07:12;22.40;84.30
28460;DHT22;32528;45.712;9.192;2022-08-03T03:09:13;22.40;84.60
28460;DHT22;32528;45.712;9.192;2022-08-03T03:11:17;22.40;84.40
28460;DHT22;32528;45.712;9.192;2022-08-03T03:13:18;22.40;84.60
28460;DHT22;32528;45.712;9.192;2022-08-03T03:15:21;22.30;84.60
28460;DHT22;32528;45.712;9.192;2022-08-03T03:17:23;22.40;84.40
28460;DHT22;32528;45.712;9.192;2022-08-03T03:19:24;22.30;84.50
28460;DHT22;32528;45.712;9.192;2022-08-03T03:21:25;22.30;84.50
28460;DHT22;32528;45.712;9.192;2022-08-03T03:23:28;22.40;85.00
28460;DHT22;32528;45.712;9.192;2022-08-03T03:25:31;22.40;84.50
28460;DHT22;32528;45.712;9.192;2022-08-03T03:27:32;22.30;84.40
28460;DHT22;32528;45.712;9.192;2022-08-03T03:29:33;22.30;84.50
28460;DHT22;32528;45.712;9.192;2022-08-03T03:31:36;22.30;84.60
28460;DHT22;32528;45.712;9.192;2022-08-03T03:33:37;22.30;84.70
28460;DHT22;32528;45.712;9.192;2022-08-03T03:35:40;22.30;84.80
28460;DHT22;32528;45.712;9.192;2022-08-03T03:37:42;22.20;85.00
28460;DHT22;32528;45.712;9.192;2022-08-03T03:39:43;22.20;85.20
28460;DHT22;32528;45.712;9.192;2022-08-03T03:41:43;22.10;85.30
28460;DHT22;32528;45.712;9.192;2022-08-03T03:43:44;22.10;85.20
28460;DHT22;32528;45.712;9.192;2022-08-03T03:45:46;22.10;85.20
28460;DHT22;32528;45.712;9.192;2022-08-03T03:47:48;22.10;85.10
28460;DHT22;32528;45.712;9.192;2022-08-03T03:49:49;22.10;85.30
28460;DHT22;32528;45.712;9.192;2022-08-03T03:51:54;22.10;85.40
28460;DHT22;32528;45.712;9.192;2022-08-03T03:53:59;22.00;85.60
28460;DHT22;32528;45.712;9.192;2022-08-03T03:56:00;22.10;85.50
28460;DHT22;32528;45.712;9.192;2022-08-03T03:58:01;22.00;85.50
28460;DHT22;32528;45.712;9.192;2022-08-03T04:00:03;22.10;85.40
28460;DHT22;32528;45.712;9.192;2022-08-03T04:02:06;22.10;85.20
28460;DHT22;32528;45.712;9.192;2022-08-03T04:04:09;22.20;85.20
28460;DHT22;32528;45.712;9.192;2022-08-03T04:06:39;22.10;85.10
28460;DHT22;32528;45.712;9.192;2022-08-03T04:08:59;22.10;85.00
28460;DHT22;32528;45.712;9.192;2022-08-03T04:11:25;22.10;85.00
28460;DHT22;32528;45.712;9.192;2022-08-03T04:13:37;22.10;85.00
28460;DHT22;32528;45.712;9.192;2022-08-03T04:15:40;22.10;84.70
28460;DHT22;32528;45.712;9.192;2022-08-03T04:17:42;22.10;84.70
28460;DHT22;32528;45.712;9.192;2022-08-03T04:19:49;22.10;84.90
28460;DHT22;32528;45.712;9.192;2022-08-03T04:21:55;22.20;85.00
28460;DHT22;32528;45.712;9.192;2022-08-03T04:24:01;22.20;84.80
28460;DHT22;32528;45.712;9.192;2022-08-03T04:26:04;22.20;84.50
28460;DHT22;32528;45.712;9.192;2022-08-03T04:28:07;22.20;84.20
28460;DHT22;32528;45.712;9.192;2022-08-03T04:30:10;22.20;84.20
28460;DHT22;32528;45.712;9.192;2022-08-03T04:32:11;22.20;84.10
28460;DHT22;32528;45.712;9.192;2022-08-03T04:34:13;22.20;83.80
28460;DHT22;32528;45.712;9.192;2022-08-03T04:36:16;22.30;83.70
28460;DHT22;32528;45.712;9.192;2022-08-03T04:38:19;22.30;83.60
28460;DHT22;32528;45.712;9.192;2022-08-03T04:40:36;22.40;83.40
28460;DHT22;32528;45.712;9.192;2022-08-03T04:42:39;22.40;83.30
28460;DHT22;32528;45.712;9.192;2022-08-03T04:44:43;22.40;83.00
28460;DHT22;32528;45.712;9.192;2022-08-03T04:46:45;22.40;82.80
28460;DHT22;32528;45.712;9.192;2022-08-03T04:48:47;22.50;82.80
28460;DHT22;32528;45.712;9.192;2022-08-03T04:50:48;22.50;82.70
28460;DHT22;32528;45.712;9.192;2022-08-03T04:52:49;22.50;82.90
28460;DHT22;32528;45.712;9.192;2022-08-03T04:54:50;22.50;82.80
28460;DHT22;32528;45.712;9.192;2022-08-03T04:56:51;22.60;82.70
28460;DHT22;32528;45.712;9.192;2022-08-03T04:58:52;22.60;82.30
28460;DHT22;32528;45.712;9.192;2022-08-03T05:00:53;22.70;82.10
28460;DHT22;32528;45.712;9.192;2022-08-03T05:02:54;22.70;81.80
28460;DHT22;32528;45.712;9.192;2022-08-03T05:04:55;22.80;81.80
28460;DHT22;32528;45.712;9.192;2022-08-03T05:06:55;22.90;81.90
28460;DHT22;32528;45.712;9.192;2022-08-03T05:08:56;22.90;81.70
28460;DHT22;32528;45.712;9.192;2022-08-03T05:10:57;23.00;81.60
28460;DHT22;32528;45.712;9.192;2022-08-03T05:12:58;23.00;81.50
28460;DHT22;32528;45.712;9.192;2022-08-03T05:14:59;23.00;81.30
28460;DHT22;32528;45.712;9.192;2022-08-03T05:17:00;23.10;81.00
28460;DHT22;32528;45.712;9.192;2022-08-03T05:19:01;23.20;80.90
28460;DHT22;32528;45.712;9.192;2022-08-03T05:21:02;23.30;80.70
28460;DHT22;32528;45.712;9.192;2022-08-03T05:23:04;23.30;80.20
28460;DHT22;32528;45.712;9.192;2022-08-03T05:25:05;23.40;79.90
28460;DHT22;32528;45.712;9.192;2022-08-03T05:27:06;23.40;79.50
28460;DHT22;32528;45.712;9.192;2022-08-03T05:31:15;23.60;78.70
28460;DHT22;32528;45.712;9.192;2022-08-03T05:33:16;23.70;78.40
28460;DHT22;32528;45.712;9.192;2022-08-03T05:35:17;23.80;77.90
28460;DHT22;32528;45.712;9.192;2022-08-03T05:37:18;23.90;77.60
28460;DHT22;32528;45.712;9.192;2022-08-03T05:39:18;24.00;78.10
28460;DHT22;32528;45.712;9.192;2022-08-03T05:41:19;24.00;78.80
28460;DHT22;32528;45.712;9.192;2022-08-03T05:43:20;24.10;78.50
28460;DHT22;32528;45.712;9.192;2022-08-03T05:45:21;24.20;78.60
28460;DHT22;32528;45.712;9.192;2022-08-03T05:47:22;24.20;78.50
28460;DHT22;32528;45.712;9.192;2022-08-03T05:49:23;24.30;77.50
28460;DHT22;32528;45.712;9.192;2022-08-03T05:51:24;24.40;77.10
28460;DHT22;32528;45.712;9.192;2022-08-03T05:53:24;24.50;76.70
28460;DHT22;32528;45.712;9.192;2022-08-03T05:55:26;24.50;76.40
28460;DHT22;32528;45.712;9.192;2022-08-03T05:57:26;24.60;76.10
28460;DHT22;32528;45.712;9.192;2022-08-03T05:59:27;24.70;75.80
28460;DHT22;32528;45.712;9.192;2022-08-03T06:01:28;24.80;75.70
28460;DHT22;32528;45.712;9.192;2022-08-03T06:03:33;24.90;75.50
28460;DHT22;32528;45.712;9.192;2022-08-03T06:05:34;25.00;75.00
28460;DHT22;32528;45.712;9.192;2022-08-03T06:07:36;25.10;74.60
28460;DHT22;32528;45.712;9.192;2022-08-03T06:09:37;25.20;74.40
28460;DHT22;32528;45.712;9.192;2022-08-03T06:11:38;25.20;74.20
28460;DHT22;32528;45.712;9.192;2022-08-03T06:13:40;25.40;74.20
28460;DHT22;32528;45.712;9.192;2022-08-03T06:15:41;25.50;74.10
28460;DHT22;32528;45.712;9.192;2022-08-03T06:17:47;25.60;73.70
28460;DHT22;32528;45.712;9.192;2022-08-03T06:19:51;25.60;73.20
28460;DHT22;32528;45.712;9.192;2022-08-03T06:21:52;25.70;73.80
28460;DHT22;32528;45.712;9.192;2022-08-03T06:23:53;25.80;73.10
28460;DHT22;32528;45.712;9.192;2022-08-03T06:25:54;25.80;72.10
28460;DHT22;32528;45.712;9.192;2022-08-03T06:27:55;25.90;72.00
28460;DHT22;32528;45.712;9.192;2022-08-03T06:29:56;25.90;72.20
28460;DHT22;32528;45.712;9.192;2022-08-03T06:31:57;26.10;72.00
28460;DHT22;32528;45.712;9.192;2022-08-03T06:33:57;26.10;71.50
28460;DHT22;32528;45.712;9.192;2022-08-03T06:35:58;26.20;71.00
28460;DHT22;32528;45.712;9.192;2022-08-03T06:37:59;26.20;71.20
28460;DHT22;32528;45.712;9.192;2022-08-03T06:40:00;26.30;70.60
28460;DHT22;32528;45.712;9.192;2022-08-03T06:42:01;26.40;70.50
28460;DHT22;32528;45.712;9.192;2022-08-03T06:44:01;26.40;70.50
28460;DHT22;32528;45.712;9.192;2022-08-03T06:46:03;26.50;70.50
28460;DHT22;32528;45.712;9.192;2022-08-03T06:48:07;26.60;70.10
28460;DHT22;32528;45.712;9.192;2022-08-03T06:50:09;26.70;69.90
28460;DHT22;32528;45.712;9.192;2022-08-03T06:52:10;26.70;69.70
28460;DHT22;32528;45.712;9.192;2022-08-03T06:54:11;26.80;69.70
28460;DHT22;32528;45.712;9.192;2022-08-03T06:56:11;26.90;69.60
28460;DHT22;32528;45.712;9.192;2022-08-03T06:58:12;26.90;69.40
28460;DHT22;32528;45.712;9.192;2022-08-03T07:00:13;27.00;69.30
28460;DHT22;32528;45.712;9.192;2022-08-03T07:02:14;27.10;69.60
28460;DHT22;32528;45.712;9.192;2022-08-03T07:04:15;27.20;68.70
28460;DHT22;32528;45.712;9.192;2022-08-03T07:06:15;27.20;68.10
28460;DHT22;32528;45.712;9.192;2022-08-03T07:08:17;27.30;68.20
28460;DHT22;32528;45.712;9.192;2022-08-03T07:10:17;27.30;67.50
28460;DHT22;32528;45.712;9.192;2022-08-03T07:12:18;27.30;67.20
28460;DHT22;32528;45.712;9.192;2022-08-03T07:14:19;27.40;67.20
28460;DHT22;32528;45.712;9.192;2022-08-03T07:16:20;27.40;66.90
28460;DHT22;32528;45.712;9.192;2022-08-03T07:18:21;27.40;66.70
28460;DHT22;32528;45.712;9.192;2022-08-03T07:20:23;27.50;66.50
28460;DHT22;32528;45.712;9.192;2022-08-03T07:22:23;27.60;66.90
28460;DHT22;32528;45.712;9.192;2022-08-03T07:24:24;27.60;66.80
28460;DHT22;32528;45.712;9.192;2022-08-03T07:26:25;27.70;66.50
28460;DHT22;32528;45.712;9.192;2022-08-03T07:28:26;27.80;66.10
28460;DHT22;32528;45.712;9.192;2022-08-03T07:30:32;27.80;65.40
28460;DHT22;32528;45.712;9.192;2022-08-03T07:32:33;27.90;65.40
28460;DHT22;32528;45.712;9.192;2022-08-03T07:34:34;27.90;64.60
28460;DHT22;32528;45.712;9.192;2022-08-03T07:36:36;28.00;64.40
28460;DHT22;32528;45.712;9.192;2022-08-03T07:38:37;28.00;64.50
28460;DHT22;32528;45.712;9.192;2022-08-03T07:40:38;28.00;64.60
28460;DHT22;32528;45.712;9.192;2022-08-03T07:42:39;28.00;65.00
28460;DHT22;32528;45.712;9.192;2022-08-03T07:44:40;28.10;64.50
28460;DHT22;32528;45.712;9.192;2022-08-03T07:46:40;28.20;64.20
28460;DHT22;32528;45.712;9.192;2022-08-03T07:48:41;28.30;64.10
28460;DHT22;32528;45.712;9.192;2022-08-03T07:50:42;28.20;63.50
28460;DHT22;32528;45.712;9.192;2022-08-03T07:52:43;28.30;63.60
28460;DHT22;32528;45.712;9.192;2022-08-03T07:54:51;28.30;64.00
28460;DHT22;32528;45.712;9.192;2022-08-03T07:56:51;28.40;63.40
28460;DHT22;32528;45.712;9.192;2022-08-03T07:58:53;28.40;63.00
28460;DHT22;32528;45.712;9.192;2022-08-03T08:00:54;28.40;63.00
28460;DHT22;32528;45.712;9.192;2022-08-03T08:02:55;28.30;63.00
28460;DHT22;32528;45.712;9.192;2022-08-03T08:04:56;28.30;63.30
28460;DHT22;32528;45.712;9.192;2022-08-03T08:06:56;28.40;62.50
28460;DHT22;32528;45.712;9.192;2022-08-03T08:08:57;28.40;62.50
28460;DHT22;32528;45.712;9.192;2022-08-03T08:11:01;28.40;62.60
28460;DHT22;32528;45.712;9.192;2022-08-03T08:13:03;28.50;62.80
28460;DHT22;32528;45.712;9.192;2022-08-03T08:15:04;28.50;63.00
28460;DHT22;32528;45.712;9.192;2022-08-03T08:17:05;28.50;62.70
28460;DHT22;32528;45.712;9.192;2022-08-03T08:19:06;28.50;62.50
28460;DHT22;32528;45.712;9.192;2022-08-03T08:21:07;28.60;62.20
28460;DHT22;32528;45.712;9.192;2022-08-03T08:23:08;28.70;62.10
28460;DHT22;32528;45.712;9.192;2022-08-03T08:25:09;28.80;62.00
28460;DHT22;32528;45.712;9.192;2022-08-03T08:27:10;28.80;61.90
28460;DHT22;32528;45.712;9.192;2022-08-03T08:29:11;28.90;61.90
28460;DHT22;32528;45.712;9.192;2022-08-03T08:31:12;28.90;62.20
28460;DHT22;32528;45.712;9.192;2022-08-03T08:33:13;29.00;61.70
28460;DHT22;32528;45.712;9.192;2022-08-03T08:35:14;28.90;61.10
28460;DHT22;32528;45.712;9.192;2022-08-03T08:37:15;29.00;61.50
28460;DHT22;32528;45.712;9.192;2022-08-03T08:39:16;29.10;61.10
28460;DHT22;32528;45.712;9.192;2022-08-03T08:41:17;29.20;61.00
28460;DHT22;32528;45.712;9.192;2022-08-03T08:43:17;29.30;60.90
28460;DHT22;32528;45.712;9.192;2022-08-03T08:45:18;29.30;61.40
28460;DHT22;32528;45.712;9.192;2022-08-03T08:47:25;29.40;60.70
28460;DHT22;32528;45.712;9.192;2022-08-03T08:49:28;29.50;59.90
28460;DHT22;32528;45.712;9.192;2022-08-03T08:51:30;29.50;60.00
28460;DHT22;32528;45.712;9.192;2022-08-03T08:53:35;29.50;59.60
28460;DHT22;32528;45.712;9.192;2022-08-03T08:55:37;29.50;59.10
28460;DHT22;32528;45.712;9.192;2022-08-03T08:57:45;29.50;59.20
28460;DHT22;32528;45.712;9.192;2022-08-03T08:59:47;29.50;59.70
28460;DHT22;32528;45.712;9.192;2022-08-03T09:01:48;29.60;59.40
28460;DHT22;32528;45.712;9.192;2022-08-03T09:03:49;29.60;59.00
28460;DHT22;32528;45.712;9.192;2022-08-03T09:05:51;29.60;59.00
28460;DHT22;32528;45.712;9.192;2022-08-03T09:07:52;29.70;59.10
28460;DHT22;32528;45.712;9.192;2022-08-03T09:09:55;29.70;58.30
28460;DHT22;32528;45.712;9.192;2022-08-03T09:11:55;29.80;58.20
28460;DHT22;32528;45.712;9.192;2022-08-03T09:13:57;29.80;58.70
28460;DHT22;32528;45.712;9.192;2022-08-03T09:16:17;29.70;58.80
28460;DHT22;32528;45.712;9.192;2022-08-03T09:18:28;29.80;58.40
28460;DHT22;32528;45.712;9.192;2022-08-03T09:20:32;29.90;58.40
28460;DHT22;32528;45.712;9.192;2022-08-03T09:22:32;29.90;58.10
28460;DHT22;32528;45.712;9.192;2022-08-03T09:24:33;29.90;57.40
28460;DHT22;32528;45.712;9.192;2022-08-03T09:26:35;29.90;57.30
28460;DHT22;32528;45.712;9.192;2022-08-03T09:28:36;30.00;57.20
28460;DHT22;32528;45.712;9.192;2022-08-03T09:30:40;30.10;57.70
28460;DHT22;32528;45.712;9.192;2022-08-03T09:32:41;29.90;56.60
28460;DHT22;32528;45.712;9.192;2022-08-03T09:34:46;29.90;57.20
28460;DHT22;32528;45.712;9.192;2022-08-03T09:36:49;30.00;57.80
28460;DHT22;32528;45.712;9.192;2022-08-03T09:39:07;30.20;57.30
28460;DHT22;32528;45.712;9.192;2022-08-03T09:41:17;30.20;56.60
28460;DHT22;32528;45.712;9.192;2022-08-03T09:43:18;30.20;56.10
28460;DHT22;32528;45.712;9.192;2022-08-03T09:45:26;30.20;56.20
28460;DHT22;32528;45.712;9.192;2022-08-03T09:47:32;30.30;56.70
28460;DHT22;32528;45.712;9.192;2022-08-03T09:49:37;30.30;56.90
28460;DHT22;32528;45.712;9.192;2022-08-03T09:51:39;30.20;57.40
28460;DHT22;32528;45.712;9.192;2022-08-03T09:53:46;30.30;57.20
28460;DHT22;32528;45.712;9.192;2022-08-03T09:55:59;30.30;56.50
28460;DHT22;32528;45.712;9.192;2022-08-03T09:58:05;30.40;57.00
28460;DHT22;32528;45.712;9.192;2022-08-03T10:02:23;30.40;56.20
28460;DHT22;32528;45.712;9.192;2022-08-03T10:04:25;30.40;55.90
28460;DHT22;32528;45.712;9.192;2022-08-03T10:06:26;30.40;55.70
28460;DHT22;32528;45.712;9.192;2022-08-03T10:08:26;30.40;56.10
28460;DHT22;32528;45.712;9.192;2022-08-03T10:10:45;30.40;55.40
28460;DHT22;32528;45.712;9.192;2022-08-03T10:12:46;30.50;55.50
28460;DHT22;32528;45.712;9.192;2022-08-03T10:14:48;30.60;55.60
28460;DHT22;32528;45.712;9.192;2022-08-03T10:16:49;30.60;55.20
28460;DHT22;32528;45.712;9.192;2022-08-03T10:18:50;30.70;56.00
28460;DHT22;32528;45.712;9.192;2022-08-03T10:20:52;30.60;54.60
28460;DHT22;32528;45.712;9.192;2022-08-03T10:22:54;30.60;55.00
28460;DHT22;32528;45.712;9.192;2022-08-03T10:24:58;30.70;55.10
28460;DHT22;32528;45.712;9.192;2022-08-03T10:27:09;30.70;55.20
28460;DHT22;32528;45.712;9.192;2022-08-03T10:29:13;30.70;54.50
28460;DHT22;32528;45.712;9.192;2022-08-03T10:31:19;30.70;54.40
28460;DHT22;32528;45.712;9.192;2022-08-03T10:33:26;30.60;54.10
28460;DHT22;32528;45.712;9.192;2022-08-03T10:35:28;30.60;53.90
28460;DHT22;32528;45.712;9.192;2022-08-03T10:37:32;30.70;54.10
28460;DHT22;32528;45.712;9.192;2022-08-03T10:39:34;30.70;54.20
28460;DHT22;32528;45.712;9.192;2022-08-03T10:41:39;30.70;54.10
28460;DHT22;32528;45.712;9.192;2022-08-03T10:43:46;30.70;53.90
28460;DHT22;32528;45.712;9.192;2022-08-03T10:45:48;30.70;53.80
28460;DHT22;32528;45.712;9.192;2022-08-03T10:47:51;30.90;54.40
28460;DHT22;32528;45.712;9.192;2022-08-03T10:49:52;30.80;53.40
28460;DHT22;32528;45.712;9.192;2022-08-03T10:51:53;30.80;53.50
28460;DHT22;32528;45.712;9.192;2022-08-03T10:53:54;30.80;53.70
28460;DHT22;32528;45.712;9.192;2022-08-03T10:55:55;30.80;53.10
28460;DHT22;32528;45.712;9.192;2022-08-03T10:58:14;30.90;53.60
28460;DHT22;32528;45.712;9.192;2022-08-03T11:00:23;31.00;53.20
28460;DHT22;32528;45.712;9.192;2022-08-03T11:03:00;31.00;53.10
28460;DHT22;32528;45.712;9.192;2022-08-03T11:05:23;31.10;52.20
28460;DHT22;32528;45.712;9.192;2022-08-03T11:07:25;31.20;51.90
28460;DHT22;32528;45.712;9.192;2022-08-03T11:09:40;31.10;51.80
28460;DHT22;32528;45.712;9.192;2022-08-03T11:11:42;31.10;51.60
28460;DHT22;32528;45.712;9.192;2022-08-03T11:14:05;31.10;51.90
28460;DHT22;32528;45.712;9.192;2022-08-03T11:16:18;31.20;51.30
28460;DHT22;32528;45.712;9.192;2022-08-03T11:18:19;31.30;52.00
28460;DHT22;32528;45.712;9.192;2022-08-03T11:21:12;31.30;52.80
28460;DHT22;32528;45.712;9.192;2022-08-03T11:23:06;31.40;53.60
28460;DHT22;32528;45.712;9.192;2022-08-03T11:25:07;31.50;53.30
28460;DHT22;32528;45.712;9.192;2022-08-03T11:29:29;31.60;53.20
28460;DHT22;32528;45.712;9.192;2022-08-03T11:33:31;31.80;52.60
28460;DHT22;32528;45.712;9.192;2022-08-03T11:35:33;31.80;52.90
28460;DHT22;32528;45.712;9.192;2022-08-03T11:38:00;32.00;53.00
28460;DHT22;32528;45.712;9.192;2022-08-03T11:39:56;32.00;53.00
28460;DHT22;32528;45.712;9.192;2022-08-03T11:41:57;32.10;53.30
28460;DHT22;32528;45.712;9.192;2022-08-03T11:43:58;32.10;52.50
28460;DHT22;32528;45.712;9.192;2022-08-03T11:48:13;32.20;52.80
28460;DHT22;32528;45.712;9.192;2022-08-03T11:50:15;32.20;52.20
28460;DHT22;32528;45.712;9.192;2022-08-03T11:52:16;32.30;52.80
28460;DHT22;32528;45.712;9.192;2022-08-03T11:54:18;32.40;51.90
28460;DHT22;32528;45.712;9.192;2022-08-03T11:56:19;32.40;52.30
28460;DHT22;32528;45.712;9.192;2022-08-03T11:58:21;32.50;52.20
28460;DHT22;32528;45.712;9.192;2022-08-03T12:02:24;32.50;52.10
28460;DHT22;32528;45.712;9.192;2022-08-03T12:04:25;32.50;51.10
28460;DHT22;32528;45.712;9.192;2022-08-03T12:06:25;32.50;51.20
28460;DHT22;32528;45.712;9.192;2022-08-03T12:10:27;32.60;51.30
28460;DHT22;32528;45.712;9.192;2022-08-03T12:12:29;32.60;51.60
28460;DHT22;32528;45.712;9.192;2022-08-03T12:14:30;32.80;51.60
28460;DHT22;32528;45.712;9.192;2022-08-03T12:16:30;33.00;51.90
28460;DHT22;32528;45.712;9.192;2022-08-03T12:18:31;33.10;51.40
28460;DHT22;32528;45.712;9.192;2022-08-03T12:20:32;33.20;51.60
28460;DHT22;32528;45.712;9.192;2022-08-03T12:22:33;33.20;51.40
28460;DHT22;32528;45.712;9.192;2022-08-03T12:24:41;33.40;51.30
28460;DHT22;32528;45.712;9.192;2022-08-03T12:26:49;33.40;49.60
28460;DHT22;32528;45.712;9.192;2022-08-03T12:28:50;33.30;49.60
28460;DHT22;32528;45.712;9.192;2022-08-03T12:30:51;33.30;50.20
28460;DHT22;32528;45.712;9.192;2022-08-03T12:32:52;33.40;49.80
28460;DHT22;32528;45.712;9.192;2022-08-03T12:34:54;33.40;49.20
28460;DHT22;32528;45.712;9.192;2022-08-03T12:36:58;33.50;49.10
28460;DHT22;32528;45.712;9.192;2022-08-03T12:39:03;33.50;49.50
28460;DHT22;32528;45.712;9.192;2022-08-03T12:41:08;33.60;49.00
28460;DHT22;32528;45.712;9.192;2022-08-03T12:43:15;33.60;48.30
28460;DHT22;32528;45.712;9.192;2022-08-03T12:45:25;33.70;49.00
28460;DHT22;32528;45.712;9.192;2022-08-03T12:47:26;33.60;50.10
28460;DHT22;32528;45.712;9.192;2022-08-03T12:49:27;33.70;49.80
28460;DHT22;32528;45.712;9.192;2022-08-03T12:51:31;33.90;49.90
28460;DHT22;32528;45.712;9.192;2022-08-03T12:53:32;33.90;49.50
28460;DHT22;32528;45.712;9.192;2022-08-03T12:55:34;34.00;49.70
28460;DHT22;32528;45.712;9.192;2022-08-03T12:57:41;34.00;48.30
28460;DHT22;32528;45.712;9.192;2022-08-03T12:59:43;34.10;49.90
28460;DHT22;32528;45.712;9.192;2022-08-03T13:01:48;34.10;48.40
28460;DHT22;32528;45.712;9.192;2022-08-03T13:03:50;34.20;48.90
28460;DHT22;32528;45.712;9.192;2022-08-03T13:05:52;34.10;48.30
28460;DHT22;32528;45.712;9.192;2022-08-03T13:07:53;33.90;48.50
28460;DHT22;32528;45.712;9.192;2022-08-03T13:09:54;33.70;48.40
28460;DHT22;32528;45.712;9.192;2022-08-03T13:12:09;33.70;48.70
28460;DHT22;32528;45.712;9.192;2022-08-03T13:14:10;33.80;48.80
28460;DHT22;32528;45.712;9.192;2022-08-03T13:16:11;34.00;48.70
28460;DHT22;32528;45.712;9.192;2022-08-03T13:18:11;34.10;48.90
28460;DHT22;32528;45.712;9.192;2022-08-03T13:20:12;34.30;49.10
28460;DHT22;32528;45.712;9.192;2022-08-03T13:24:17;34.10;48.30
28460;DHT22;32528;45.712;9.192;2022-08-03T13:26:18;34.10;48.20